createdAt,value
2022-11-19T00:02:01.116Z,12.46
2022-11-19T00:04:29.128Z,12.53
2022-11-19T00:06:58.550Z,12.47
2022-11-19T00:09:26.622Z,12.18
2022-11-19T00:12:11.774Z,12.20
2022-11-19T00:14:39.737Z,12.29
2022-11-19T00:17:07.664Z,12.27
2022-11-19T00:19:35.589Z,12.39
2022-11-19T00:22:04.885Z,12.40
2022-11-19T00:24:32.814Z,12.53
2022-11-19T00:27:00.745Z,12.46
2022-11-19T00:29:28.650Z,12.51
2022-11-19T00:31:56.576Z,12.36
2022-11-19T00:34:24.491Z,12.38
2022-11-19T00:36:52.417Z,12.23
2022-11-19T00:39:22.270Z,12.31
2022-11-19T00:41:50.380Z,12.33
2022-11-19T00:44:18.332Z,12.39
2022-11-19T00:46:46.285Z,12.41
2022-11-19T00:49:14.186Z,12.45
2022-11-19T00:51:42.111Z,12.50
2022-11-19T00:54:10.033Z,12.31
2022-11-19T00:56:39.361Z,12.17
2022-11-19T00:59:07.316Z,12.19
2022-11-19T01:01:35.334Z,12.14
2022-11-19T01:04:03.348Z,12.11
2022-11-19T01:06:31.516Z,12.15
2022-11-19T01:08:59.675Z,12.22
2022-11-19T01:11:29.048Z,12.14
2022-11-19T01:13:59.709Z,12.02
2022-11-19T01:16:29.659Z,12.07
2022-11-19T01:18:58.049Z,12.02
2022-11-19T01:21:29.232Z,11.87
2022-11-19T01:23:58.223Z,11.80
2022-11-19T01:26:26.933Z,11.79
2022-11-19T01:28:55.709Z,11.69
2022-11-19T01:31:26.815Z,11.76
2022-11-19T01:33:55.544Z,11.77
2022-11-19T01:36:26.000Z,11.86
2022-11-19T01:38:54.699Z,11.89
2022-11-19T01:41:24.623Z,11.81
2022-11-19T01:43:56.176Z,11.56
2022-11-19T01:46:27.388Z,11.64
2022-11-19T01:48:59.833Z,11.67
2022-11-19T01:51:31.742Z,11.63
2022-11-19T01:54:04.974Z,11.62
2022-11-19T01:56:33.263Z,11.60
2022-11-19T01:59:05.188Z,11.64
2022-11-19T02:01:34.959Z,11.56
2022-11-19T02:04:03.984Z,11.61
2022-11-19T02:06:32.389Z,11.73
2022-11-19T02:09:00.325Z,11.67
2022-11-19T02:12:10.529Z,11.44
2022-11-19T02:15:07.228Z,11.51
2022-11-19T02:18:08.433Z,11.62
2022-11-19T02:20:46.782Z,11.58
2022-11-19T02:23:54.234Z,11.58
2022-11-19T02:27:06.876Z,11.43
2022-11-19T02:30:10.117Z,11.54
2022-11-19T02:33:00.912Z,11.51
2022-11-19T02:35:40.520Z,11.37
2022-11-19T02:38:17.513Z,11.21
2022-11-19T02:40:50.004Z,11.25
2022-11-19T02:43:23.004Z,11.28
2022-11-19T02:45:57.413Z,11.37
2022-11-19T02:48:29.876Z,11.45
2022-11-19T02:51:02.053Z,11.38
2022-11-19T02:53:30.245Z,11.43
2022-11-19T02:56:13.537Z,11.44
2022-11-19T02:59:14.992Z,11.37
2022-11-19T03:02:04.979Z,11.34
2022-11-19T03:04:34.059Z,11.24
2022-11-19T03:07:06.543Z,11.17
2022-11-19T03:09:39.077Z,11.21
2022-11-19T03:12:18.549Z,11.12
2022-11-19T03:15:12.680Z,11.21
2022-11-19T03:17:54.881Z,11.21
2022-11-19T03:20:27.910Z,11.16
2022-11-19T03:23:01.757Z,11.17
2022-11-19T03:25:34.352Z,11.15
2022-11-19T03:28:06.504Z,11.12
2022-11-19T03:30:34.783Z,11.07
2022-11-19T03:33:08.816Z,11.10
2022-11-19T03:35:42.015Z,11.06
2022-11-19T03:38:14.620Z,11.12
2022-11-19T03:40:43.948Z,11.09
2022-11-19T03:43:17.881Z,11.11
2022-11-19T03:45:48.693Z,11.15
2022-11-19T03:48:18.624Z,11.03
2022-11-19T03:50:51.024Z,10.95
2022-11-19T03:53:20.489Z,10.99
2022-11-19T03:55:53.961Z,11.04
2022-11-19T03:58:25.407Z,10.97
2022-11-19T04:00:53.723Z,10.94
2022-11-19T04:03:23.078Z,10.96
2022-11-19T04:05:51.005Z,10.94
2022-11-19T04:08:18.971Z,10.76
2022-11-19T04:10:46.892Z,10.81
2022-11-19T04:13:14.796Z,10.84
2022-11-19T04:15:42.721Z,10.82
2022-11-19T04:18:10.691Z,10.77
2022-11-19T04:20:39.975Z,10.64
2022-11-19T04:23:07.916Z,10.49
2022-11-19T04:25:35.852Z,10.52
2022-11-19T04:28:03.900Z,10.56
2022-11-19T04:30:31.848Z,10.56
2022-11-19T04:32:59.803Z,10.61
2022-11-19T04:35:27.912Z,10.65
2022-11-19T04:37:57.225Z,10.54
2022-11-19T04:40:25.142Z,10.57
2022-11-19T04:42:53.044Z,10.66
2022-11-19T04:45:20.976Z,10.72
2022-11-19T04:47:48.912Z,10.54
2022-11-19T04:50:17.050Z,10.52
2022-11-19T04:52:44.947Z,10.52
2022-11-19T04:55:14.253Z,10.51
2022-11-19T04:57:42.223Z,10.53
2022-11-19T05:00:11.300Z,10.70
2022-11-19T05:02:39.189Z,10.49
2022-11-19T05:05:08.173Z,10.57
2022-11-19T05:07:36.207Z,10.62
2022-11-19T05:10:05.061Z,10.52
2022-11-19T05:12:34.369Z,10.50
2022-11-19T05:15:02.288Z,10.44
2022-11-19T05:17:30.233Z,10.35
2022-11-19T05:19:59.631Z,10.34
2022-11-19T05:22:27.581Z,10.41
2022-11-19T05:24:55.505Z,10.35
2022-11-19T05:27:23.488Z,10.44
2022-11-19T05:29:52.836Z,10.55
2022-11-19T05:32:20.732Z,10.45
2022-11-19T05:34:48.628Z,10.41
2022-11-19T05:37:16.569Z,10.54
2022-11-19T05:39:44.491Z,10.45
2022-11-19T05:42:12.393Z,10.40
2022-11-19T05:44:40.317Z,10.42
2022-11-19T05:47:09.629Z,10.52
2022-11-19T05:49:37.569Z,10.64
2022-11-19T05:52:06.116Z,10.83
2022-11-19T05:54:34.182Z,10.95
2022-11-19T05:57:02.106Z,11.05
2022-11-19T05:59:30.034Z,11.05
2022-11-19T06:01:57.979Z,11.06
2022-11-19T06:04:27.296Z,11.03
2022-11-19T06:06:55.245Z,11.12
2022-11-19T06:09:23.341Z,11.16
2022-11-19T06:11:51.401Z,11.19
2022-11-19T06:14:22.148Z,11.22
2022-11-19T06:16:51.452Z,11.19
2022-11-19T06:19:20.393Z,11.26
2022-11-19T06:21:50.528Z,11.36
2022-11-19T06:24:18.851Z,11.38
2022-11-19T06:26:46.797Z,11.50
2022-11-19T06:29:15.920Z,11.43
2022-11-19T06:31:43.917Z,11.50
2022-11-19T06:34:12.126Z,11.49
2022-11-19T06:36:44.887Z,11.60
2022-11-19T06:39:18.486Z,11.59
2022-11-19T06:41:48.847Z,11.71
2022-11-19T06:44:16.928Z,11.78
2022-11-19T06:46:44.872Z,11.80
2022-11-19T06:49:18.429Z,11.95
2022-11-19T06:51:47.979Z,11.95
2022-11-19T06:54:15.899Z,11.92
2022-11-19T06:56:45.186Z,11.97
2022-11-19T06:59:13.118Z,12.13
2022-11-19T07:01:41.090Z,12.27
2022-11-19T07:04:09.121Z,12.30
2022-11-19T07:06:37.029Z,12.40
2022-11-19T07:09:04.977Z,12.36
2022-11-19T07:11:32.908Z,12.25
2022-11-19T07:14:03.909Z,12.22
2022-11-19T07:16:34.550Z,12.15
2022-11-19T07:19:04.560Z,12.02
2022-11-19T07:21:32.968Z,12.00
2022-11-19T07:24:02.417Z,11.94
2022-11-19T07:26:32.256Z,11.98
2022-11-19T07:29:05.051Z,11.99
2022-11-19T07:31:33.452Z,12.18
2022-11-19T07:34:01.492Z,12.31
2022-11-19T07:36:29.463Z,12.39
2022-11-19T07:38:58.529Z,12.40
2022-11-19T07:41:43.908Z,12.55
2022-11-19T07:44:13.207Z,12.50
2022-11-19T07:46:41.524Z,12.61
2022-11-19T07:49:09.519Z,12.62
2022-11-19T07:51:37.540Z,12.75
2022-11-19T07:54:05.720Z,12.97
2022-11-19T07:56:33.689Z,12.93
2022-11-19T07:59:02.079Z,13.00
2022-11-19T08:01:31.613Z,13.15
2022-11-19T08:03:59.742Z,13.18
2022-11-19T08:06:29.939Z,13.20
2022-11-19T08:08:58.138Z,13.14
2022-11-19T08:11:26.340Z,13.18
2022-11-19T08:13:54.405Z,13.07
2022-11-19T08:16:36.615Z,13.18
2022-11-19T08:19:08.327Z,13.09
2022-11-19T08:21:37.045Z,13.24
2022-11-19T08:24:05.426Z,13.10
2022-11-19T08:26:33.346Z,13.31
2022-11-19T08:29:01.324Z,13.32
2022-11-19T08:31:29.541Z,13.36
2022-11-19T08:33:57.445Z,13.33
2022-11-19T08:36:26.808Z,13.40
2022-11-19T08:38:57.338Z,13.55
2022-11-19T08:41:48.533Z,13.79
2022-11-19T08:44:17.996Z,14.14
2022-11-19T08:46:46.473Z,14.37
2022-11-19T08:49:14.844Z,14.66
2022-11-19T08:51:44.129Z,14.77
2022-11-19T08:54:13.195Z,14.78
2022-11-19T08:56:41.154Z,14.62
2022-11-19T08:59:09.156Z,14.35
2022-11-19T09:01:37.128Z,14.27
2022-11-19T09:04:05.212Z,14.29
2022-11-19T09:06:35.783Z,14.35
2022-11-19T09:09:05.807Z,14.40
2022-11-19T09:11:37.266Z,14.53
2022-11-19T09:14:07.551Z,14.52
2022-11-19T09:16:38.556Z,14.56
2022-11-19T09:19:06.456Z,14.58
2022-11-19T09:21:34.396Z,14.61
2022-11-19T09:24:02.331Z,14.68
2022-11-19T09:26:31.647Z,14.52
2022-11-19T09:28:59.588Z,14.69
2022-11-19T09:31:27.521Z,14.85
2022-11-19T09:33:55.617Z,15.08
2022-11-19T09:36:23.565Z,15.18
2022-11-19T09:38:51.503Z,15.25
2022-11-19T09:41:51.282Z,15.22
2022-11-19T09:44:33.472Z,15.11
2022-11-19T09:47:13.512Z,14.90
2022-11-19T09:49:46.437Z,14.83
2022-11-19T09:52:18.004Z,14.88
2022-11-19T09:54:49.556Z,14.92
2022-11-19T09:57:27.852Z,15.08
2022-11-19T09:59:59.985Z,14.89
2022-11-19T10:02:28.848Z,14.89
2022-11-19T10:04:57.263Z,14.92
2022-11-19T10:07:36.354Z,14.96
2022-11-19T10:10:16.676Z,15.07
2022-11-19T10:13:11.877Z,15.18
2022-11-19T10:15:53.051Z,15.19
2022-11-19T10:18:31.028Z,15.14
2022-11-19T10:21:06.155Z,15.14
2022-11-19T10:23:45.756Z,15.09
2022-11-19T10:26:17.096Z,15.14
2022-11-19T10:28:53.890Z,15.32
2022-11-19T10:31:30.325Z,15.39
2022-11-19T10:34:05.754Z,15.48
2022-11-19T10:36:39.447Z,15.56
2022-11-19T10:39:15.871Z,15.66
2022-11-19T10:41:49.442Z,15.67
2022-11-19T10:44:40.329Z,15.76
2022-11-19T10:47:14.332Z,15.63
2022-11-19T10:49:43.560Z,15.70
2022-11-19T10:52:23.557Z,15.73
2022-11-19T10:54:53.903Z,15.75
2022-11-19T10:57:23.321Z,15.81
2022-11-19T10:59:54.887Z,15.70
2022-11-19T11:02:30.651Z,15.61
2022-11-19T11:05:17.589Z,15.58
2022-11-19T11:07:51.553Z,15.59
2022-11-19T11:10:36.209Z,15.65
2022-11-19T11:13:37.879Z,15.63
2022-11-19T11:16:09.368Z,15.48
2022-11-19T11:18:40.738Z,15.47
2022-11-19T11:21:13.203Z,15.54
2022-11-19T11:23:51.190Z,15.53
2022-11-19T11:26:23.013Z,15.65
2022-11-19T11:29:01.135Z,15.66
2022-11-19T11:31:36.604Z,15.44
2022-11-19T11:34:06.211Z,15.38
2022-11-19T11:36:37.228Z,15.24
2022-11-19T11:39:06.772Z,15.07
2022-11-19T11:44:30.134Z,14.85
2022-11-19T11:47:03.725Z,14.87
2022-11-19T11:49:35.127Z,14.90
2022-11-19T11:52:08.415Z,14.95
2022-11-19T11:54:37.373Z,14.92
2022-11-19T11:57:18.749Z,14.97
2022-11-19T11:59:47.190Z,15.05
2022-11-19T12:02:27.298Z,15.04
2022-11-19T12:04:56.806Z,15.05
2022-11-19T12:07:59.230Z,15.03
2022-11-19T12:10:31.548Z,14.99
2022-11-19T12:13:17.728Z,14.88
2022-11-19T12:15:56.293Z,14.94
2022-11-19T12:18:38.532Z,14.97
2022-11-19T12:21:12.019Z,15.14
2022-11-19T12:23:59.679Z,15.17
2022-11-19T12:26:36.593Z,15.25
2022-11-19T12:29:19.431Z,15.17
2022-11-19T12:32:08.611Z,15.40
2022-11-19T12:34:52.030Z,15.51
2022-11-19T12:37:33.824Z,15.57
2022-11-19T12:40:13.149Z,15.69
2022-11-19T12:42:53.555Z,15.76
2022-11-19T12:45:30.656Z,15.73
2022-11-19T12:48:18.062Z,15.70
2022-11-19T12:50:57.366Z,15.65
2022-11-19T12:53:45.091Z,15.67
2022-11-19T12:56:25.240Z,15.73
2022-11-19T12:59:03.733Z,15.71
2022-11-19T13:01:36.963Z,15.61
2022-11-19T13:04:12.566Z,15.65
2022-11-19T13:06:48.506Z,15.69
2022-11-19T13:09:19.780Z,15.85
2022-11-19T13:11:53.921Z,15.86
2022-11-19T13:14:28.875Z,15.96
2022-11-19T13:16:58.120Z,15.88
2022-11-19T13:19:30.384Z,15.88
2022-11-19T13:22:06.427Z,15.92
2022-11-19T13:24:40.947Z,15.79
2022-11-19T13:27:18.828Z,15.78
2022-11-19T13:29:54.136Z,15.66
2022-11-19T13:32:26.865Z,15.70
2022-11-19T13:35:04.576Z,15.73
2022-11-19T13:37:44.883Z,15.74
2022-11-19T13:40:21.022Z,15.67
2022-11-19T13:46:06.581Z,15.67
2022-11-19T13:48:39.692Z,15.35
2022-11-19T13:51:11.132Z,15.50
2022-11-19T13:53:45.032Z,15.56
2022-11-19T13:56:15.585Z,15.55
2022-11-19T13:58:48.445Z,15.48
2022-11-19T14:01:55.232Z,15.47
2022-11-19T14:04:46.881Z,15.40
2022-11-19T14:07:33.831Z,15.35
2022-11-19T14:10:15.285Z,15.34
2022-11-19T14:13:08.204Z,15.15
2022-11-19T14:16:13.908Z,15.16
2022-11-19T14:19:03.773Z,15.21
2022-11-19T14:22:09.798Z,15.17
2022-11-19T14:25:14.517Z,15.20
2022-11-19T14:27:44.686Z,15.15
2022-11-19T14:30:18.692Z,15.15
2022-11-19T14:32:48.379Z,15.14
2022-11-19T14:35:36.237Z,15.10
2022-11-19T14:38:39.176Z,15.04
2022-11-19T14:41:22.253Z,14.98
2022-11-19T14:44:11.610Z,14.98
2022-11-19T14:46:42.153Z,14.96
2022-11-19T14:49:34.865Z,14.90
2022-11-19T14:52:04.028Z,14.78
2022-11-19T14:54:37.065Z,14.81
2022-11-19T14:57:16.780Z,14.72
2022-11-19T14:59:52.543Z,14.69
2022-11-19T15:02:25.980Z,14.68
2022-11-19T15:04:58.779Z,14.66
2022-11-19T15:07:42.227Z,14.54
2022-11-19T15:10:29.566Z,14.59
2022-11-19T15:13:20.445Z,14.60
2022-11-19T15:15:54.004Z,14.56
2022-11-19T15:18:55.862Z,14.48
2022-11-19T15:21:47.657Z,14.20
2022-11-19T15:24:29.580Z,14.19
2022-11-19T15:27:05.979Z,14.25
2022-11-19T15:29:57.118Z,14.26
2022-11-19T15:32:35.864Z,14.26
2022-11-19T15:35:32.863Z,14.19
2022-11-19T15:38:06.645Z,14.25
2022-11-19T15:40:36.357Z,14.27
2022-11-19T15:43:12.442Z,14.27
2022-11-19T15:45:46.100Z,14.25
2022-11-19T15:48:20.377Z,14.20
2022-11-19T15:50:49.731Z,14.14
2022-11-19T15:53:19.843Z,14.09
2022-11-19T15:55:52.810Z,14.06
2022-11-19T15:58:25.801Z,14.11
2022-11-19T16:00:55.616Z,14.12
2022-11-19T16:03:25.921Z,14.13
2022-11-19T16:06:02.986Z,14.13
2022-11-19T16:08:31.603Z,14.05
2022-11-19T16:11:20.560Z,13.84
2022-11-19T16:14:09.297Z,13.88
2022-11-19T16:16:54.849Z,13.89
2022-11-19T16:19:24.631Z,13.77
2022-11-19T16:21:57.335Z,13.81
2022-11-19T16:24:44.929Z,13.81
2022-11-19T16:27:19.498Z,13.83
2022-11-19T16:29:47.847Z,13.78
2022-11-19T16:32:19.016Z,13.56
2022-11-19T16:34:48.582Z,13.68
2022-11-19T16:37:18.543Z,13.61
2022-11-19T16:39:51.988Z,13.32
2022-11-19T16:42:26.136Z,13.17
2022-11-19T16:44:56.371Z,13.12
2022-11-19T16:47:30.253Z,13.11
2022-11-19T16:50:04.996Z,13.25
2022-11-19T16:52:40.967Z,13.21
2022-11-19T16:55:40.538Z,13.26
2022-11-19T16:58:16.262Z,13.15
2022-11-19T17:00:49.117Z,13.13
2022-11-19T17:03:24.585Z,13.02
2022-11-19T17:05:54.874Z,13.10
2022-11-19T17:08:25.268Z,13.16
2022-11-19T17:11:35.082Z,13.34
2022-11-19T17:14:23.723Z,13.24
2022-11-19T17:16:53.367Z,13.09
2022-11-19T17:19:28.903Z,12.83
2022-11-19T17:22:01.614Z,12.75
2022-11-19T17:24:33.145Z,12.55
2022-11-19T17:27:01.518Z,12.45
2022-11-19T17:29:29.549Z,12.46
2022-11-19T17:31:57.920Z,12.46
2022-11-19T17:34:32.061Z,12.35
2022-11-19T17:37:01.535Z,12.51
2022-11-19T17:39:29.484Z,12.56
2022-11-19T17:42:15.709Z,12.53
2022-11-19T17:44:43.833Z,12.49
2022-11-19T17:47:24.050Z,12.46
2022-11-19T17:49:52.853Z,12.37
2022-11-19T17:52:24.781Z,12.28
2022-11-19T17:54:55.017Z,12.11
2022-11-19T17:57:23.045Z,12.19
2022-11-19T17:59:51.210Z,12.26
2022-11-19T18:02:21.378Z,12.25
2022-11-19T18:04:50.010Z,12.19
2022-11-19T18:07:18.017Z,12.25
2022-11-19T18:09:47.571Z,12.37
2022-11-19T18:12:17.724Z,12.21
2022-11-19T18:14:46.274Z,12.17
2022-11-19T18:17:15.523Z,12.29
2022-11-19T18:19:43.603Z,12.18
2022-11-19T18:22:18.174Z,12.02
2022-11-19T18:24:49.951Z,11.94
2022-11-19T18:27:18.602Z,11.97
2022-11-19T18:29:46.853Z,11.76
2022-11-19T18:32:17.051Z,11.93
2022-11-19T18:34:46.121Z,11.95
2022-11-19T18:37:14.145Z,12.01
2022-11-19T18:39:42.089Z,11.89
2022-11-19T18:42:12.903Z,11.86
2022-11-19T18:44:43.371Z,11.78
2022-11-19T18:47:12.684Z,11.81
2022-11-19T18:49:41.129Z,11.76
2022-11-19T18:52:12.209Z,11.84
2022-11-19T18:54:40.151Z,11.68
2022-11-19T18:57:08.093Z,11.85
2022-11-19T18:59:37.405Z,11.95
2022-11-19T19:02:05.592Z,11.83
2022-11-19T19:04:33.743Z,11.71
2022-11-19T19:07:01.807Z,11.86
2022-11-19T19:09:29.816Z,11.97
2022-11-19T19:12:15.146Z,11.85
2022-11-19T19:14:45.543Z,11.87
2022-11-19T19:17:14.380Z,11.95
2022-11-19T19:19:42.870Z,12.12
2022-11-19T19:22:10.840Z,12.23
2022-11-19T19:24:38.993Z,12.08
2022-11-19T19:27:06.981Z,12.08
2022-11-19T19:29:34.964Z,11.99
2022-11-19T19:32:04.406Z,11.95
2022-11-19T19:34:32.341Z,12.07
2022-11-19T19:37:00.307Z,12.08
2022-11-19T19:39:28.266Z,12.05
2022-11-19T19:41:56.237Z,12.14
2022-11-19T19:44:24.170Z,12.21
2022-11-19T19:46:52.158Z,12.08
2022-11-19T19:49:22.299Z,12.15
2022-11-19T19:51:50.987Z,12.09
2022-11-19T19:54:18.926Z,12.05
2022-11-19T19:56:46.885Z,12.01
2022-11-19T19:59:15.348Z,11.81
2022-11-19T20:01:47.504Z,11.90
2022-11-19T20:04:15.660Z,11.88
2022-11-19T20:06:47.885Z,11.85
2022-11-19T20:09:15.869Z,11.72
2022-11-19T20:11:43.820Z,11.79
2022-11-19T20:14:11.830Z,11.80
2022-11-19T20:16:41.959Z,11.73
2022-11-19T20:19:13.188Z,11.72
2022-11-19T20:21:41.378Z,11.69
2022-11-19T20:24:12.958Z,11.79
2022-11-19T20:26:42.667Z,11.63
2022-11-19T20:29:12.911Z,11.59
2022-11-19T20:31:41.869Z,11.60
2022-11-19T20:34:12.052Z,11.61
2022-11-19T20:36:40.261Z,11.66
2022-11-19T20:39:08.296Z,11.54
2022-11-19T20:41:55.829Z,11.72
2022-11-19T20:44:24.160Z,11.72
2022-11-19T20:46:54.567Z,11.79
2022-11-19T20:49:25.342Z,11.77
2022-11-19T20:51:54.426Z,11.66
2022-11-19T20:54:22.975Z,11.58
2022-11-19T20:56:53.936Z,11.60
2022-11-19T20:59:22.566Z,11.46
2022-11-19T21:01:51.491Z,11.45
2022-11-19T21:04:19.846Z,11.48
2022-11-19T21:06:49.980Z,11.32
2022-11-19T21:09:19.593Z,11.45
2022-11-19T21:11:48.139Z,11.48
2022-11-19T21:14:17.493Z,11.49
2022-11-19T21:16:45.496Z,11.49
2022-11-19T21:19:14.150Z,11.29
2022-11-19T21:21:42.450Z,11.14
2022-11-19T21:24:10.472Z,11.09
2022-11-19T21:26:38.502Z,11.20
2022-11-19T21:29:06.441Z,11.20
2022-11-19T21:31:42.431Z,11.20
2022-11-19T21:34:12.163Z,11.16
2022-11-19T21:36:42.084Z,11.13
2022-11-19T21:39:10.784Z,10.98
2022-11-19T21:41:39.117Z,10.97
2022-11-19T21:44:07.509Z,11.02
2022-11-19T21:46:37.172Z,10.99
2022-11-19T21:49:05.592Z,11.05
2022-11-19T21:51:33.577Z,11.13
2022-11-19T21:54:01.650Z,11.16
2022-11-19T21:56:35.231Z,11.12
2022-11-19T21:59:05.118Z,11.11
2022-11-19T22:01:33.049Z,11.18
2022-11-19T22:04:02.363Z,10.97
2022-11-19T22:06:31.977Z,10.86
2022-11-19T22:09:00.056Z,10.92
2022-11-19T22:11:31.044Z,10.94
2022-11-19T22:14:01.467Z,11.01
2022-11-19T22:16:29.995Z,11.10
2022-11-19T22:18:57.921Z,10.98
2022-11-19T22:21:29.202Z,10.98
2022-11-19T22:23:57.531Z,10.92
2022-11-19T22:26:26.360Z,10.97
2022-11-19T22:28:54.394Z,11.05
2022-11-19T22:31:22.423Z,11.06
2022-11-19T22:33:52.095Z,11.07
2022-11-19T22:36:21.779Z,11.05
2022-11-19T22:38:51.872Z,10.95
2022-11-19T22:41:22.065Z,10.91
2022-11-19T22:43:50.879Z,11.00
2022-11-19T22:46:19.344Z,11.02
2022-11-19T22:48:47.573Z,11.02
2022-11-19T22:51:16.885Z,10.97
2022-11-19T22:53:45.483Z,11.03
2022-11-19T22:56:17.731Z,11.23
2022-11-19T22:58:45.726Z,11.26
2022-11-19T23:01:16.684Z,11.41
2022-11-19T23:03:44.938Z,11.48
2022-11-19T23:06:12.913Z,11.61
2022-11-19T23:08:41.057Z,11.63
2022-11-19T23:11:09.513Z,11.65
2022-11-19T23:13:40.094Z,11.60
2022-11-19T23:16:10.037Z,11.67
2022-11-19T23:18:39.800Z,11.66
2022-11-19T23:21:09.993Z,11.52
2022-11-19T23:23:38.450Z,11.41
2022-11-19T23:26:08.168Z,11.58
2022-11-19T23:28:38.470Z,11.52
2022-11-19T23:31:08.481Z,11.49
2022-11-19T23:33:36.504Z,11.55
2022-11-19T23:36:06.129Z,11.47
2022-11-19T23:38:35.330Z,11.59
2022-11-19T23:41:05.442Z,11.72
2022-11-19T23:43:34.038Z,11.80
2022-11-19T23:46:07.009Z,11.72
2022-11-19T23:48:35.640Z,11.70
2022-11-19T23:51:04.130Z,11.62
2022-11-19T23:53:32.213Z,11.49
2022-11-19T23:56:00.646Z,11.60
2022-11-19T23:58:29.215Z,11.58
